KSNK/SNK METAR and TAF weather

Enter ICAO airport designator
Station Type Date Time Source
KSNK METAR 2020/02/24 08:55 UTC NOAA

KSNK 240855Z AUTO 30017G24KT 10SM CLR 09/01 A2987 RMK AO2 T00890009


Station Type Date Time Source
KSNK Decoded METAR 2020/02/24 08:55 UTC NOAA

Snyder, Winston Field Airport, TX, United States (KSNK) 32-41-36N 100-57-01W
Feb 24, 2020 - 03:55 AM EST / 2020.02.24 0855 UTC
Wind: from the WNW (300 degrees) at 20 MPH (17 KT) gusting to 28 MPH (24 KT):0
Visibility: 10 mile(s):0
Sky conditions: clear
Temperature: 48.0 F (8.9 C)
Dew Point: 33.6 F (0.9 C)
Relative Humidity: 57%
Pressure (altimeter): 29.87 in. Hg (1011 hPa)
ob: KSNK 240855Z AUTO 30017G24KT 10SM CLR 09/01 A2987 RMK AO2 T00890009
cycle: 9

Station Type Date Time Source
KSNK TAF UTC NOAA

Error!

Example: see airport list